Time;durP1;ratioP1;P1;durP2;ratioP2;P2;SDS_P1;SDS_P2;PMS_P1;PMS_P2;Temp;Humidity;BMP_temperature;BMP_pressure;BME280_temperature;BME280_humidity;BME280_pressure;Samples;Min_cycle;Max_cycle;Signal;HPM_P1;HPM_P2
2022/12/29 00:00:12;;;;;;;0.10;0.10;;;17.30;87.10;;;;;;5072691;28;45438;-72
2022/12/29 00:02:38;;;;;;;0.50;0.30;;;17.30;87.00;;;;;;5060678;28;45480;-71
2022/12/29 00:05:07;;;;;;;0.10;0.10;;;17.30;87.00;;;;;;5070728;28;45331;-71
2022/12/29 00:07:34;;;;;;;0.10;0.10;;;17.30;87.00;;;;;;5073649;28;45474;-70
2022/12/29 00:10:01;;;;;;;0.10;0.10;;;17.30;87.40;;;;;;5048742;27;45310;-71
2022/12/29 00:15:36;;;;;;;0.08;0.08;;;17.30;87.20;;;;;;5044131;28;45401;-70
2022/12/29 00:17:59;;;;;;;0.10;0.10;;;17.40;87.10;;;;;;5062903;28;45769;-71
2022/12/29 00:36:51;;;;;;;0.15;0.10;;;17.40;86.60;;;;;;5063890;28;45361;-70
2022/12/29 00:44:49;;;;;;;0.40;0.10;;;17.40;86.30;;;;;;5046133;28;45362;-71
2022/12/29 00:47:15;;;;;;;0.17;0.17;;;17.40;86.30;;;;;;5061673;28;45481;-70
2022/12/29 00:49:41;;;;;;;0.28;0.10;;;17.40;86.20;;;;;;5054729;27;45457;-70
2022/12/29 00:52:11;;;;;;;0.10;0.10;;;17.30;86.40;;;;;;5070100;28;45509;-70
2022/12/29 00:54:39;;;;;;;0.10;0.10;;;17.30;86.40;;;;;;5075958;27;45337;-70
2022/12/29 00:57:08;;;;;;;0.22;0.10;;;17.30;86.40;;;;;;5082865;27;45529;-70
2022/12/29 00:59:36;;;;;;;0.20;0.20;;;17.30;86.40;;;;;;5076640;27;47159;-70
2022/12/29 01:02:03;;;;;;;0.10;0.10;;;17.30;86.60;;;;;;5057510;28;45390;-70
2022/12/29 01:04:29;;;;;;;0.10;0.10;;;17.40;87.00;;;;;;5042785;28;45526;-71
2022/12/29 01:06:56;;;;;;;0.32;0.10;;;17.40;86.70;;;;;;5042058;28;45392;-70
2022/12/29 01:12:14;;;;;;;0.35;0.10;;;17.40;86.60;;;;;;5031821;28;45487;-71
2022/12/29 01:14:41;;;;;;;0.10;0.10;;;17.40;86.40;;;;;;5042968;28;45317;-71
2022/12/29 01:17:08;;;;;;;0.10;0.10;;;17.40;86.20;;;;;;5042583;28;45483;-70
2022/12/29 01:19:35;;;;;;;0.35;0.10;;;17.40;86.20;;;;;;5042695;28;48031;-72
2022/12/29 01:22:02;;;;;;;0.08;0.03;;;17.40;86.10;;;;;;5042394;28;45403;-70
2022/12/29 01:24:30;;;;;;;0.90;0.10;;;17.40;86.00;;;;;;5042874;28;45376;-71
2022/12/29 01:26:57;;;;;;;0.10;0.00;;;17.40;86.40;;;;;;5041685;28;45542;-71
2022/12/29 01:29:24;;;;;;;0.10;0.10;;;17.40;86.10;;;;;;5042484;28;48397;-70
2022/12/29 01:31:51;;;;;;;0.90;0.10;;;17.40;85.90;;;;;;5042203;28;45360;-70
2022/12/29 01:34:18;;;;;;;0.00;0.00;;;17.40;86.00;;;;;;5054298;28;45437;-70
2022/12/29 01:36:44;;;;;;;0.10;0.10;;;17.40;85.80;;;;;;5062490;28;45439;-70
2022/12/29 01:39:11;;;;;;;0.40;0.10;;;17.40;85.80;;;;;;5061813;28;48038;-70
2022/12/29 01:41:39;;;;;;;0.20;0.05;;;17.40;86.20;;;;;;5062862;28;45335;-70
2022/12/29 01:44:48;;;;;;;0.10;0.10;;;17.40;86.20;;;;;;5062512;28;45474;-71
2022/12/29 01:47:19;;;;;;;0.10;0.10;;;17.40;86.00;;;;;;5062189;28;45614;-70
2022/12/29 01:49:46;;;;;;;0.30;0.10;;;17.40;86.20;;;;;;5059223;28;46063;-70
2022/12/29 01:52:13;;;;;;;0.55;0.17;;;17.40;85.90;;;;;;5061036;28;45315;-70
2022/12/29 01:54:44;;;;;;;0.22;0.10;;;17.40;85.90;;;;;;5062833;28;45528;-70
2022/12/29 01:57:17;;;;;;;0.05;0.03;;;17.40;86.10;;;;;;5060728;28;45242;-69
2022/12/29 01:59:49;;;;;;;0.10;0.10;;;17.40;86.30;;;;;;5061906;28;45536;-70
2022/12/29 02:02:17;;;;;;;0.17;0.10;;;17.40;85.60;;;;;;5054139;28;45487;-70
2022/12/29 02:04:44;;;;;;;0.20;0.20;;;17.40;85.90;;;;;;5042786;28;45337;-71
2022/12/29 02:07:17;;;;;;;0.10;0.10;;;17.40;86.10;;;;;;5041464;28;45776;-71
2022/12/29 02:09:47;;;;;;;1.52;0.20;;;17.40;86.50;;;;;;5041625;28;46581;-71
2022/12/29 02:12:15;;;;;;;0.10;0.10;;;17.40;85.60;;;;;;5040892;28;45285;-71
2022/12/29 02:14:42;;;;;;;0.00;0.00;;;17.40;86.40;;;;;;5042171;28;45556;-70
2022/12/29 02:17:18;;;;;;;0.80;0.10;;;17.40;86.00;;;;;;5041392;28;45349;-71
2022/12/29 02:20:20;;;;;;;0.70;0.17;;;17.40;85.90;;;;;;5040790;28;46989;-71
2022/12/29 02:23:06;;;;;;;0.03;0.03;;;17.40;85.10;;;;;;5038240;28;45379;-70
2022/12/29 02:25:55;;;;;;;0.40;0.20;;;17.40;85.40;;;;;;5042190;28;45400;-71
2022/12/29 02:28:45;;;;;;;0.10;0.10;;;17.40;85.40;;;;;;5041873;28;45400;-70
2022/12/29 02:31:23;;;;;;;0.10;0.10;;;17.40;85.50;;;;;;5041231;28;45387;-71
2022/12/29 02:34:03;;;;;;;0.30;0.10;;;17.40;85.40;;;;;;5050472;28;45463;-70
2022/12/29 02:36:41;;;;;;;0.10;0.10;;;17.40;85.50;;;;;;5061050;28;45388;-70
2022/12/29 02:39:16;;;;;;;0.32;0.25;;;17.40;85.40;;;;;;5062558;28;45357;-71
2022/12/29 02:41:50;;;;;;;0.22;0.20;;;17.40;85.30;;;;;;5060445;28;46417;-70
2022/12/29 02:44:22;;;;;;;0.28;0.28;;;17.40;85.60;;;;;;5061790;28;45652;-71
2022/12/29 02:46:56;;;;;;;0.95;0.10;;;17.40;85.40;;;;;;5061534;28;45436;-71
2022/12/29 02:49:32;;;;;;;0.60;0.20;;;17.40;85.40;;;;;;5062172;28;45281;-72
2022/12/29 02:52:03;;;;;;;0.15;0.10;;;17.40;85.70;;;;;;5064439;28;45434;-70
2022/12/29 02:54:42;;;;;;;0.43;0.20;;;17.40;86.00;;;;;;5071877;28;45340;-70
2022/12/29 02:57:12;;;;;;;0.10;0.05;;;17.40;85.60;;;;;;5074411;28;45310;-70
2022/12/29 02:59:40;;;;;;;0.20;0.10;;;17.40;85.30;;;;;;5054822;27;45427;-71
2022/12/29 03:02:24;;;;;;;0.32;0.17;;;17.40;85.80;;;;;;5045090;28;46342;-71
2022/12/29 03:05:19;;;;;;;0.10;0.10;;;17.40;85.90;;;;;;5060493;28;45461;-71
2022/12/29 03:07:53;;;;;;;0.40;0.10;;;17.50;85.80;;;;;;5055051;28;45367;-71
2022/12/29 03:10:34;;;;;;;0.20;0.10;;;17.40;85.70;;;;;;5064919;28;45441;-71
2022/12/29 03:16:01;;;;;;;0.75;0.20;;;17.40;85.00;;;;;;5064241;28;45304;-71
2022/12/29 03:18:38;;;;;;;0.10;0.10;;;17.40;84.90;;;;;;5065149;28;45209;-71
2022/12/29 03:21:10;;;;;;;0.40;0.20;;;17.40;84.60;;;;;;5064982;28;45247;-72
2022/12/29 03:23:40;;;;;;;0.10;0.10;;;17.40;85.10;;;;;;5064554;28;47363;-71
2022/12/29 03:26:11;;;;;;;0.55;0.32;;;17.40;85.20;;;;;;5063557;28;45344;-72
2022/12/29 03:28:42;;;;;;;0.32;0.10;;;17.40;85.00;;;;;;5064343;28;45386;-71
2022/12/29 03:31:11;;;;;;;0.63;0.20;;;17.40;85.00;;;;;;5063929;28;45315;-71
2022/12/29 03:33:42;;;;;;;0.10;0.10;;;17.40;84.90;;;;;;5056134;28;46431;-71
2022/12/29 03:36:13;;;;;;;0.45;0.08;;;17.40;85.20;;;;;;5044101;28;45767;-70
2022/12/29 03:38:45;;;;;;;0.38;0.20;;;17.40;84.80;;;;;;5046412;28;45353;-71
2022/12/29 03:41:16;;;;;;;0.20;0.20;;;17.40;85.00;;;;;;5055246;28;45366;-70
2022/12/29 03:43:43;;;;;;;0.20;0.10;;;17.40;85.00;;;;;;5067384;28;45265;-70
2022/12/29 03:46:09;;;;;;;0.30;0.20;;;17.40;85.10;;;;;;5061994;28;45282;-70
2022/12/29 03:48:36;;;;;;;0.17;0.17;;;17.40;85.70;;;;;;5077905;27;45226;-71
2022/12/29 03:51:05;;;;;;;0.63;0.15;;;17.40;85.10;;;;;;5080242;27;45441;-71
2022/12/29 03:53:31;;;;;;;0.32;0.10;;;17.40;85.30;;;;;;5084879;27;47035;-71
2022/12/29 03:55:58;;;;;;;0.30;0.10;;;17.40;85.20;;;;;;5084919;28;45345;-71
2022/12/29 03:58:25;;;;;;;0.20;0.10;;;17.40;85.40;;;;;;5083647;27;45418;-71
2022/12/29 04:00:52;;;;;;;0.22;0.10;;;17.40;85.30;;;;;;5084977;27;45404;-71
2022/12/29 04:03:18;;;;;;;0.20;0.10;;;17.40;84.70;;;;;;5080943;27;46603;-71
2022/12/29 04:05:45;;;;;;;0.47;0.20;;;17.50;85.40;;;;;;5063890;28;46422;-71
2022/12/29 04:08:13;;;;;;;0.17;0.17;;;17.50;84.80;;;;;;5062848;28;45358;-71
2022/12/29 04:10:40;;;;;;;0.75;0.20;;;17.50;84.60;;;;;;5064301;28;45372;-70
2022/12/29 04:13:07;;;;;;;0.20;0.10;;;17.40;84.30;;;;;;5063982;28;46860;-71
2022/12/29 04:15:34;;;;;;;0.38;0.10;;;17.50;84.60;;;;;;5063530;28;45246;-70
2022/12/29 04:18:01;;;;;;;0.68;0.20;;;17.40;84.50;;;;;;5063574;28;45314;-71
2022/12/29 04:23:13;;;;;;;0.80;0.20;;;17.40;84.80;;;;;;5061026;28;45709;-71
2022/12/29 04:25:40;;;;;;;0.30;0.10;;;17.40;84.80;;;;;;5042994;28;45277;-71
2022/12/29 04:28:07;;;;;;;0.20;0.20;;;17.40;84.60;;;;;;5043253;28;45421;-71
2022/12/29 04:30:34;;;;;;;1.02;0.22;;;17.40;84.50;;;;;;5043665;28;45285;-71
2022/12/29 04:33:01;;;;;;;0.38;0.22;;;17.40;84.60;;;;;;5043281;28;46577;-71
2022/12/29 04:35:27;;;;;;;0.20;0.10;;;17.40;84.50;;;;;;5058241;28;45349;-71
2022/12/29 04:37:54;;;;;;;0.85;0.20;;;17.40;84.40;;;;;;5062881;28;45294;-71
2022/12/29 04:40:23;;;;;;;0.22;0.10;;;17.40;84.50;;;;;;5060011;28;45352;-71
2022/12/29 04:42:51;;;;;;;0.13;0.10;;;17.40;84.80;;;;;;5043398;28;45397;-71
2022/12/29 04:45:17;;;;;;;0.13;0.13;;;17.40;84.50;;;;;;5043314;28;45342;-71
2022/12/29 04:47:45;;;;;;;0.22;0.20;;;17.40;84.70;;;;;;5042969;28;45265;-71
2022/12/29 04:50:12;;;;;;;0.32;0.20;;;17.40;84.60;;;;;;5040839;28;45416;-71
2022/12/29 04:52:39;;;;;;;0.55;0.20;;;17.50;84.50;;;;;;5066558;28;45501;-71
2022/12/29 04:55:07;;;;;;;0.17;0.10;;;17.40;84.60;;;;;;5069118;27;45771;-71
2022/12/29 04:57:35;;;;;;;0.43;0.15;;;17.50;85.00;;;;;;5074044;27;45624;-71
2022/12/29 05:00:03;;;;;;;0.45;0.10;;;17.50;85.20;;;;;;5075249;27;45422;-71
2022/12/29 05:02:30;;;;;;;1.08;0.15;;;17.50;84.20;;;;;;5083120;27;48061;-71
2022/12/29 05:04:57;;;;;;;0.77;0.17;;;17.50;84.20;;;;;;5050029;27;45282;-71
2022/12/29 05:07:24;;;;;;;0.10;0.10;;;17.50;83.80;;;;;;5041858;28;45350;-72
2022/12/29 05:09:51;;;;;;;0.40;0.25;;;17.50;84.20;;;;;;5043249;28;45289;-71
2022/12/29 05:12:18;;;;;;;0.17;0.10;;;17.40;83.90;;;;;;5042654;28;46598;-70
2022/12/29 05:14:46;;;;;;;0.63;0.20;;;17.50;84.30;;;;;;5043149;28;45269;-72
2022/12/29 05:17:13;;;;;;;0.52;0.20;;;17.40;84.30;;;;;;5042580;28;45355;-72
2022/12/29 05:19:39;;;;;;;0.13;0.10;;;17.40;84.10;;;;;;5042881;28;45359;-71
2022/12/29 05:22:06;;;;;;;0.10;0.10;;;17.40;84.00;;;;;;5042899;28;45527;-71
2022/12/29 05:24:33;;;;;;;0.75;0.25;;;17.40;84.00;;;;;;5042182;28;46143;-71
2022/12/29 05:27:00;;;;;;;0.30;0.20;;;17.40;84.20;;;;;;5042222;28;45351;-71
2022/12/29 05:29:26;;;;;;;0.47;0.10;;;17.40;83.80;;;;;;5062254;28;45357;-71
2022/12/29 05:31:55;;;;;;;0.40;0.20;;;17.40;83.80;;;;;;5074007;27;47508;-71
2022/12/29 05:34:21;;;;;;;0.30;0.10;;;17.40;84.20;;;;;;5074642;27;45695;-71
2022/12/29 05:36:48;;;;;;;0.20;0.20;;;17.40;84.90;;;;;;5076554;27;45237;-71
2022/12/29 05:39:15;;;;;;;0.30;0.28;;;17.40;85.00;;;;;;5075019;27;45560;-72
2022/12/29 05:41:42;;;;;;;0.10;0.10;;;17.40;85.00;;;;;;5082569;27;47601;-71
2022/12/29 05:44:08;;;;;;;0.63;0.20;;;17.40;84.90;;;;;;5082126;27;45754;-71
2022/12/29 05:46:35;;;;;;;0.75;0.10;;;17.40;85.00;;;;;;5081961;27;45432;-72
2022/12/29 05:49:03;;;;;;;0.28;0.20;;;17.40;85.10;;;;;;5063074;27;45393;-72
2022/12/29 05:51:30;;;;;;;0.20;0.13;;;17.40;84.90;;;;;;5040442;28;46584;-72
2022/12/29 05:53:57;;;;;;;0.08;0.08;;;17.50;85.00;;;;;;5041118;28;45349;-71
2022/12/29 05:56:24;;;;;;;0.52;0.10;;;17.40;85.00;;;;;;5041875;28;45435;-72
2022/12/29 05:58:51;;;;;;;0.35;0.20;;;17.40;84.80;;;;;;5042160;28;45387;-71
2022/12/29 06:01:17;;;;;;;0.60;0.20;;;17.50;84.90;;;;;;5042211;28;46576;-71
2022/12/29 06:03:44;;;;;;;0.40;0.10;;;17.40;84.30;;;;;;5042072;28;45750;-71
2022/12/29 06:06:12;;;;;;;0.40;0.20;;;17.40;83.90;;;;;;5041964;28;45479;-71
2022/12/29 06:08:39;;;;;;;0.30;0.10;;;17.40;83.60;;;;;;5041942;28;45526;-72
2022/12/29 06:11:06;;;;;;;0.10;0.10;;;17.40;83.70;;;;;;5041947;28;45529;-71
2022/12/29 06:13:33;;;;;;;0.63;0.30;;;17.40;84.00;;;;;;5042165;28;45285;-71
2022/12/29 06:16:00;;;;;;;0.10;0.10;;;17.40;83.70;;;;;;5041410;28;45327;-71
2022/12/29 06:18:26;;;;;;;0.47;0.20;;;17.40;83.80;;;;;;5042175;28;45214;-71
2022/12/29 06:20:53;;;;;;;0.40;0.10;;;17.40;83.60;;;;;;5042317;28;48302;-72
2022/12/29 06:23:21;;;;;;;0.30;0.10;;;17.40;83.40;;;;;;5041697;28;45494;-71
2022/12/29 06:25:49;;;;;;;0.15;0.10;;;17.40;83.30;;;;;;5043529;28;45314;-71
2022/12/29 06:28:16;;;;;;;0.40;0.20;;;17.40;83.60;;;;;;5045002;28;45245;-71
2022/12/29 06:30:45;;;;;;;0.25;0.13;;;17.40;84.10;;;;;;5045310;28;47037;-71
2022/12/29 06:33:11;;;;;;;0.00;0.00;;;17.40;84.30;;;;;;5045227;28;45356;-72
2022/12/29 06:35:38;;;;;;;0.20;0.10;;;17.40;84.30;;;;;;5061160;28;45500;-71
2022/12/29 06:38:05;;;;;;;0.13;0.13;;;17.40;84.20;;;;;;5065458;28;45682;-71
2022/12/29 06:40:33;;;;;;;0.30;0.20;;;17.50;84.70;;;;;;5050888;28;47343;-72
2022/12/29 06:43:00;;;;;;;0.90;0.60;;;17.50;84.40;;;;;;5045564;28;45526;-72
2022/12/29 06:45:27;;;;;;;0.10;0.10;;;17.40;84.20;;;;;;5044986;28;45320;-71
2022/12/29 06:47:53;;;;;;;0.45;0.22;;;17.50;84.60;;;;;;5044989;28;45487;-72
2022/12/29 06:50:20;;;;;;;0.40;0.10;;;17.40;83.80;;;;;;5042685;28;47221;-71
2022/12/29 06:52:47;;;;;;;0.20;0.20;;;17.40;84.10;;;;;;5071858;28;45272;-71
2022/12/29 06:55:14;;;;;;;0.77;0.15;;;17.50;83.80;;;;;;5077310;28;45439;-71
2022/12/29 06:57:42;;;;;;;0.50;0.20;;;17.50;83.30;;;;;;5077977;28;45707;-71
2022/12/29 07:00:10;;;;;;;1.30;0.30;;;17.40;82.50;;;;;;5077701;27;47953;-71
2022/12/29 07:02:37;;;;;;;2.33;0.45;;;17.40;82.80;;;;;;5076937;27;45596;-71
2022/12/29 07:05:04;;;;;;;1.48;0.50;;;17.40;82.70;;;;;;5075321;27;45336;-71
2022/12/29 07:07:31;;;;;;;0.52;0.20;;;17.40;82.70;;;;;;5044044;28;45525;-71
2022/12/29 07:09:58;;;;;;;0.55;0.17;;;17.40;82.60;;;;;;5045180;28;46474;-71
2022/12/29 07:12:24;;;;;;;0.50;0.20;;;17.40;82.50;;;;;;5051615;28;45280;-71
2022/12/29 07:14:53;;;;;;;0.68;0.30;;;17.40;82.10;;;;;;5075505;28;45553;-71
2022/12/29 07:17:19;;;;;;;0.70;0.20;;;17.40;82.40;;;;;;5075192;27;45312;-71
2022/12/29 07:19:46;;;;;;;0.10;0.10;;;17.40;82.00;;;;;;5076478;28;45536;-71
2022/12/29 07:22:13;;;;;;;1.30;0.20;;;17.40;82.70;;;;;;5081148;27;45317;-71
2022/12/29 07:24:40;;;;;;;0.65;0.28;;;17.40;83.30;;;;;;5071629;28;45407;-71
2022/12/29 07:27:07;;;;;;;0.75;0.13;;;17.40;83.30;;;;;;5075248;27;45446;-71
2022/12/29 07:29:33;;;;;;;0.70;0.20;;;17.40;83.10;;;;;;5072401;27;46295;-71
2022/12/29 07:32:01;;;;;;;0.60;0.30;;;17.40;83.50;;;;;;5071843;28;45434;-72
2022/12/29 07:34:29;;;;;;;0.68;0.30;;;17.40;83.20;;;;;;5060889;28;45403;-71
2022/12/29 07:36:56;;;;;;;1.27;0.30;;;17.40;83.50;;;;;;5070243;27;45479;-71
2022/12/29 07:39:23;;;;;;;0.28;0.25;;;17.40;83.50;;;;;;5050503;28;45325;-71
2022/12/29 07:41:50;;;;;;;1.00;0.35;;;17.40;83.80;;;;;;5064957;28;45400;-71
2022/12/29 07:44:17;;;;;;;0.22;0.10;;;17.40;83.70;;;;;;5064016;28;45540;-72
2022/12/29 07:46:44;;;;;;;0.95;0.20;;;17.40;83.80;;;;;;5063481;28;45311;-72
2022/12/29 07:49:12;;;;;;;1.35;0.30;;;17.30;83.40;;;;;;5044904;28;45254;-71
2022/12/29 07:51:39;;;;;;;1.45;0.68;;;17.30;83.30;;;;;;5061294;28;45636;-71
2022/12/29 07:54:05;;;;;;;0.95;0.40;;;17.30;83.30;;;;;;5064433;28;45388;-71
2022/12/29 07:56:32;;;;;;;0.30;0.10;;;17.30;83.00;;;;;;5062970;28;45475;-73
2022/12/29 07:58:59;;;;;;;2.17;0.20;;;17.30;82.40;;;;;;5063977;28;47591;-72
2022/12/29 08:01:26;;;;;;;0.70;0.30;;;17.30;82.30;;;;;;5063663;28;45278;-71
2022/12/29 08:03:53;;;;;;;0.52;0.30;;;17.30;82.60;;;;;;5064094;28;45384;-71
2022/12/29 08:06:22;;;;;;;1.33;0.40;;;17.30;82.20;;;;;;5058412;28;45597;-71
2022/12/29 08:08:49;;;;;;;0.60;0.20;;;17.20;81.90;;;;;;5063404;28;45330;-72
2022/12/29 08:11:15;;;;;;;1.33;0.30;;;17.20;81.60;;;;;;5060957;28;45455;-71
2022/12/29 08:13:42;;;;;;;0.10;0.10;;;17.30;81.50;;;;;;5068596;28;45372;-72
2022/12/29 08:16:09;;;;;;;1.05;0.30;;;17.30;82.30;;;;;;5071117;28;45332;-71
2022/12/29 08:18:36;;;;;;;1.20;0.20;;;17.30;82.80;;;;;;5070543;27;45325;-71
2022/12/29 08:21:03;;;;;;;1.02;0.30;;;17.30;82.80;;;;;;5056948;28;45455;-71
2022/12/29 08:23:32;;;;;;;0.73;0.30;;;17.30;82.70;;;;;;5070718;27;45442;-72
2022/12/29 08:26:00;;;;;;;0.30;0.20;;;17.30;82.80;;;;;;5079476;27;45406;-71
2022/12/29 08:28:27;;;;;;;0.47;0.20;;;17.30;82.80;;;;;;5065975;28;48008;-72
2022/12/29 08:30:54;;;;;;;2.20;0.50;;;17.30;82.90;;;;;;5071831;28;45501;-71
2022/12/29 08:33:21;;;;;;;0.82;0.38;;;17.30;83.20;;;;;;5083069;28;45520;-71
2022/12/29 08:35:47;;;;;;;0.85;0.35;;;17.30;84.20;;;;;;5083273;27;45419;-72
2022/12/29 08:38:14;;;;;;;2.17;0.50;;;17.40;82.90;;;;;;5062667;28;45853;-71
2022/12/29 08:40:42;;;;;;;0.15;0.15;;;17.30;82.80;;;;;;5075209;27;45241;-71
2022/12/29 08:43:09;;;;;;;0.82;0.30;;;17.30;82.70;;;;;;5065748;27;45351;-71
2022/12/29 08:45:36;;;;;;;0.40;0.20;;;17.30;81.50;;;;;;5063932;28;45274;-71
2022/12/29 08:48:03;;;;;;;1.52;0.70;;;17.30;81.90;;;;;;5061697;28;45348;-72
2022/12/29 08:50:30;;;;;;;1.05;0.35;;;17.30;81.80;;;;;;5061215;28;45466;-71
2022/12/29 08:52:56;;;;;;;0.60;0.20;;;17.30;82.00;;;;;;5075702;28;45340;-72
2022/12/29 08:55:23;;;;;;;0.60;0.20;;;17.30;81.90;;;;;;5065473;27;45283;-71
2022/12/29 08:57:51;;;;;;;0.70;0.20;;;17.30;81.30;;;;;;5068196;27;46624;-71
2022/12/29 09:00:20;;;;;;;1.08;0.57;;;17.30;81.00;;;;;;5063150;28;45364;-72
2022/12/29 09:02:46;;;;;;;1.00;0.30;;;17.40;81.00;;;;;;5071035;28;45363;-71
2022/12/29 09:05:13;;;;;;;1.27;0.35;;;17.40;80.80;;;;;;5081771;28;45511;-72
2022/12/29 09:07:40;;;;;;;0.90;0.30;;;17.40;80.60;;;;;;5055980;28;47128;-72
2022/12/29 09:10:08;;;;;;;2.15;0.32;;;17.40;81.00;;;;;;5068481;28;45430;-72
2022/12/29 09:12:35;;;;;;;1.23;0.30;;;17.40;80.90;;;;;;5060882;28;45476;-71
2022/12/29 09:15:04;;;;;;;1.35;0.63;;;17.50;81.20;;;;;;5063878;28;45248;-72
2022/12/29 09:17:44;;;;;;;1.30;0.47;;;17.50;81.00;;;;;;5073685;27;47925;-72
2022/12/29 09:20:11;;;;;;;0.90;0.35;;;17.50;81.00;;;;;;5059766;27;45577;-73
2022/12/29 09:22:38;;;;;;;0.93;0.30;;;17.50;81.20;;;;;;5062592;28;45350;-72
2022/12/29 09:25:06;;;;;;;0.93;0.30;;;17.50;81.00;;;;;;5064645;28;45464;-72
2022/12/29 09:27:33;;;;;;;0.85;0.28;;;17.50;80.80;;;;;;5071388;27;46424;-72
2022/12/29 09:29:59;;;;;;;0.93;0.30;;;17.50;81.00;;;;;;5061658;28;45436;-72
2022/12/29 09:32:28;;;;;;;2.22;0.60;;;17.50;81.20;;;;;;5062785;28;45357;-72
2022/12/29 09:34:55;;;;;;;0.73;0.30;;;17.50;80.70;;;;;;5059516;28;45317;-73
2022/12/29 09:37:21;;;;;;;0.98;0.20;;;17.50;80.60;;;;;;5078101;28;48225;-71
2022/12/29 09:39:48;;;;;;;1.13;0.43;;;17.50;80.50;;;;;;5063868;27;45369;-72
2022/12/29 09:42:20;;;;;;;0.73;0.30;;;17.50;80.50;;;;;;5061789;28;45498;-72
2022/12/29 09:45:00;;;;;;;1.85;0.40;;;17.50;80.40;;;;;;5062261;28;45332;-71
2022/12/29 09:47:30;;;;;;;0.52;0.20;;;17.50;80.40;;;;;;5060740;28;45541;-72
2022/12/29 09:50:02;;;;;;;0.88;0.30;;;17.50;80.30;;;;;;5043791;28;45324;-72
2022/12/29 09:52:35;;;;;;;0.93;0.30;;;17.50;80.30;;;;;;5068430;28;45351;-72
2022/12/29 09:55:05;;;;;;;0.90;0.30;;;17.50;80.10;;;;;;5063874;27;45302;-71
2022/12/29 09:57:38;;;;;;;1.42;0.50;;;17.50;79.90;;;;;;5061068;28;46279;-72
2022/12/29 10:00:12;;;;;;;1.83;0.50;;;17.50;79.90;;;;;;5062171;28;45376;-71
2022/12/29 10:02:44;;;;;;;0.82;0.40;;;17.50;79.60;;;;;;5062668;28;45367;-71
2022/12/29 10:05:24;;;;;;;0.63;0.50;;;17.50;80.00;;;;;;5061258;28;45305;-72
2022/12/29 10:07:57;;;;;;;1.60;0.40;;;17.50;80.20;;;;;;5059778;28;46329;-71
2022/12/29 10:10:33;;;;;;;1.88;0.30;;;17.40;79.50;;;;;;5070044;28;45587;-72
2022/12/29 10:13:11;;;;;;;1.00;0.40;;;17.40;78.50;;;;;;5062217;28;45230;-72
2022/12/29 10:15:50;;;;;;;1.38;0.40;;;17.40;78.00;;;;;;5061651;28;45558;-72
2022/12/29 10:18:33;;;;;;;1.45;0.70;;;17.40;78.00;;;;;;5060559;28;46285;-71
2022/12/29 10:21:06;;;;;;;2.15;0.30;;;17.40;78.20;;;;;;5052680;28;45348;-72
2022/12/29 10:23:36;;;;;;;1.17;0.40;;;17.40;80.10;;;;;;5064942;28;45481;-72
2022/12/29 10:26:04;;;;;;;2.72;0.30;;;17.40;80.20;;;;;;5066898;28;45404;-71
2022/12/29 10:28:38;;;;;;;2.13;0.57;;;17.40;80.10;;;;;;5081147;27;45444;-72
2022/12/29 10:31:10;;;;;;;1.40;0.45;;;17.40;80.00;;;;;;5075191;28;45391;-72
2022/12/29 10:33:42;;;;;;;3.35;0.60;;;17.30;80.00;;;;;;5082812;27;45466;-72
2022/12/29 10:36:17;;;;;;;5.30;0.95;;;17.40;80.60;;;;;;5075486;27;45359;-72
2022/12/29 10:38:52;;;;;;;2.92;0.70;;;17.30;80.40;;;;;;5044900;28;45297;-72
2022/12/29 10:41:25;;;;;;;2.85;0.82;;;17.30;80.40;;;;;;5046630;28;45292;-72
2022/12/29 10:43:55;;;;;;;2.95;0.60;;;17.30;80.40;;;;;;5072819;27;45323;-73
2022/12/29 10:46:24;;;;;;;1.30;0.45;;;17.30;79.90;;;;;;5070672;28;45255;-73
2022/12/29 10:48:52;;;;;;;1.50;0.70;;;17.30;80.10;;;;;;5066464;27;46269;-72
2022/12/29 10:51:23;;;;;;;4.57;0.60;;;17.30;80.90;;;;;;5061271;28;45609;-73
2022/12/29 10:53:56;;;;;;;2.53;0.45;;;17.30;80.80;;;;;;5064734;28;45392;-72
2022/12/29 10:56:32;;;;;;;2.72;0.85;;;17.30;80.30;;;;;;5067005;28;45418;-72
2022/12/29 10:59:04;;;;;;;6.68;0.60;;;17.40;80.00;;;;;;5069606;28;45628;-73
2022/12/29 11:01:38;;;;;;;6.72;0.75;;;17.40;80.00;;;;;;5061552;28;45341;-73
2022/12/29 11:04:19;;;;;;;4.35;0.55;;;17.40;80.00;;;;;;5067817;28;45370;-73
2022/12/29 11:06:46;;;;;;;1.88;0.45;;;17.40;79.60;;;;;;5064190;27;45461;-73
2022/12/29 11:09:17;;;;;;;2.03;0.50;;;17.40;80.00;;;;;;5055419;28;47549;-73
2022/12/29 11:11:43;;;;;;;1.05;0.40;;;17.40;79.50;;;;;;5055378;28;46031;-72
2022/12/29 11:14:14;;;;;;;1.02;0.50;;;17.40;79.00;;;;;;5045541;28;45378;-74
2022/12/29 11:16:43;;;;;;;2.83;0.57;;;17.40;79.00;;;;;;5045209;28;45277;-72
2022/12/29 11:19:23;;;;;;;1.63;0.57;;;17.40;78.80;;;;;;5069006;28;45336;-73
2022/12/29 11:21:50;;;;;;;1.58;0.57;;;17.40;78.70;;;;;;5079836;28;45392;-73
2022/12/29 11:24:23;;;;;;;1.33;0.40;;;17.40;78.90;;;;;;5067252;27;45387;-73
2022/12/29 11:26:52;;;;;;;1.77;0.40;;;17.40;78.40;;;;;;5072876;28;45310;-72
2022/12/29 11:29:25;;;;;;;2.67;0.50;;;17.30;77.70;;;;;;5063874;28;46554;-72
2022/12/29 11:31:54;;;;;;;3.28;0.70;;;17.30;77.20;;;;;;5081925;27;45803;-70
2022/12/29 11:34:25;;;;;;;3.58;0.80;;;17.30;76.20;;;;;;5065347;28;45371;-72
2022/12/29 11:36:55;;;;;;;3.58;0.77;;;17.30;76.00;;;;;;5069191;28;45338;-72
2022/12/29 11:39:33;;;;;;;2.63;0.60;;;17.30;75.90;;;;;;5064077;27;48092;-72
2022/12/29 11:42:02;;;;;;;1.60;0.50;;;17.30;76.90;;;;;;5067936;28;45368;-72
2022/12/29 11:44:36;;;;;;;2.38;0.47;;;17.30;75.90;;;;;;5050885;28;45416;-71
2022/12/29 11:47:04;;;;;;;1.35;0.52;;;17.20;76.40;;;;;;5065497;28;45442;-72
2022/12/29 11:49:33;;;;;;;1.33;0.43;;;17.20;75.80;;;;;;5072583;28;46597;-72
2022/12/29 11:52:00;;;;;;;5.35;0.80;;;17.20;76.50;;;;;;5068082;27;45509;-72
2022/12/29 11:54:30;;;;;;;2.38;0.70;;;17.30;76.50;;;;;;5064419;28;45699;-72
2022/12/29 11:56:59;;;;;;;4.40;0.90;;;17.30;76.10;;;;;;5064651;28;45511;-73
2022/12/29 11:59:44;;;;;;;1.25;0.80;;;17.30;76.50;;;;;;5064428;28;45285;-73
2022/12/29 12:02:35;;;;;;;2.83;0.70;;;17.30;76.50;;;;;;5063909;28;45316;-73
2022/12/29 12:05:10;;;;;;;3.00;0.70;;;17.40;76.40;;;;;;5061247;28;45435;-73
2022/12/29 12:07:43;;;;;;;3.83;0.70;;;17.40;76.00;;;;;;5064083;28;45598;-73
2022/12/29 12:10:25;;;;;;;4.45;0.63;;;17.40;76.00;;;;;;5062956;28;48006;-73
2022/12/29 12:12:59;;;;;;;2.25;0.52;;;17.40;76.00;;;;;;5064368;28;45340;-73
2022/12/29 12:15:31;;;;;;;1.65;0.45;;;17.40;75.90;;;;;;5064080;28;45412;-73
2022/12/29 12:18:04;;;;;;;3.35;1.00;;;17.40;76.40;;;;;;5064304;28;45392;-73
2022/12/29 12:20:42;;;;;;;2.13;0.50;;;17.40;77.00;;;;;;5050175;28;47615;-73
2022/12/29 12:23:26;;;;;;;1.85;0.30;;;17.40;76.00;;;;;;5043950;28;45493;-73
2022/12/29 12:26:00;;;;;;;3.92;0.85;;;17.40;76.00;;;;;;5044347;28;45349;-73
2022/12/29 12:28:35;;;;;;;2.40;0.60;;;17.40;76.00;;;;;;5043626;28;45377;-73
2022/12/29 12:31:05;;;;;;;3.58;0.45;;;17.40;75.90;;;;;;5043170;28;47920;-74
2022/12/29 12:33:36;;;;;;;2.70;0.57;;;17.40;75.70;;;;;;5043888;28;45379;-73
2022/12/29 12:36:23;;;;;;;2.50;0.63;;;17.40;76.00;;;;;;5044678;28;45464;-74
2022/12/29 12:38:55;;;;;;;2.42;0.85;;;17.40;75.90;;;;;;5042485;28;45507;-73
2022/12/29 12:41:34;;;;;;;1.70;0.70;;;17.50;76.10;;;;;;5043662;28;45707;-73
2022/12/29 12:44:06;;;;;;;2.25;0.70;;;17.50;76.10;;;;;;5043620;28;45677;-73
2022/12/29 12:46:59;;;;;;;3.10;0.50;;;17.50;76.10;;;;;;5044336;28;45359;-73
2022/12/29 12:49:55;;;;;;;2.50;0.52;;;17.50;76.10;;;;;;5043455;28;45288;-73
2022/12/29 12:52:33;;;;;;;1.85;0.63;;;17.50;76.10;;;;;;5040673;28;47523;-73
2022/12/29 12:55:17;;;;;;;3.10;0.73;;;17.50;76.10;;;;;;5044223;28;45371;-73
2022/12/29 12:57:52;;;;;;;3.58;0.43;;;17.50;76.10;;;;;;5043045;28;45337;-73
2022/12/29 13:00:23;;;;;;;3.47;0.80;;;17.50;75.60;;;;;;5043844;28;45238;-73
2022/12/29 13:03:05;;;;;;;3.05;0.70;;;17.50;76.10;;;;;;5042844;28;48183;-73
2022/12/29 13:05:48;;;;;;;1.88;0.52;;;17.50;75.90;;;;;;5040510;28;45293;-74
2022/12/29 13:08:40;;;;;;;2.40;0.65;;;17.50;75.50;;;;;;5042626;28;45414;-73
2022/12/29 13:11:17;;;;;;;1.65;0.50;;;17.50;75.80;;;;;;5053640;28;45316;-73
2022/12/29 13:13:59;;;;;;;2.05;0.50;;;17.50;75.80;;;;;;5063134;28;46827;-73
2022/12/29 13:16:39;;;;;;;2.85;0.65;;;17.50;75.40;;;;;;5063538;28;45315;-72
2022/12/29 13:19:12;;;;;;;2.33;0.57;;;17.50;75.10;;;;;;5063067;28;45443;-74
2022/12/29 13:21:53;;;;;;;3.28;0.40;;;17.50;74.70;;;;;;5063806;28;45252;-73
2022/12/29 13:24:29;;;;;;;1.50;0.43;;;17.50;75.50;;;;;;5062515;28;46402;-73
2022/12/29 13:27:01;;;;;;;2.30;0.60;;;17.50;75.70;;;;;;5062107;28;45336;-74
2022/12/29 13:29:36;;;;;;;0.50;0.30;;;17.50;75.60;;;;;;5043006;28;45480;-73
2022/12/29 13:32:16;;;;;;;0.98;0.52;;;17.50;76.10;;;;;;5043292;28;45449;-73
2022/12/29 13:34:52;;;;;;;2.05;0.50;;;17.50;75.50;;;;;;5042836;28;45392;-74
2022/12/29 13:37:23;;;;;;;1.23;0.40;;;17.50;75.50;;;;;;5040928;28;45333;-73